sensor_id;sensor_type;location;lat;lon;timestamp;temperature;humidity
12815;DHT22;6472;52.328;13.070;2022-12-07T00:00:14;1.40;99.90
12815;DHT22;6472;52.328;13.070;2022-12-07T00:02:42;1.40;99.90
12815;DHT22;6472;52.328;13.070;2022-12-07T00:05:11;1.40;99.90
12815;DHT22;6472;52.328;13.070;2022-12-07T00:07:39;1.40;99.90
12815;DHT22;6472;52.328;13.070;2022-12-07T00:10:08;1.40;99.90
12815;DHT22;6472;52.328;13.070;2022-12-07T00:12:36;1.20;99.90
12815;DHT22;6472;52.328;13.070;2022-12-07T00:15:07;1.20;99.90
12815;DHT22;6472;52.328;13.070;2022-12-07T00:17:35;1.10;99.90
12815;DHT22;6472;52.328;13.070;2022-12-07T00:20:04;1.10;99.90
12815;DHT22;6472;52.328;13.070;2022-12-07T00:22:32;1.10;99.90
12815;DHT22;6472;52.328;13.070;2022-12-07T00:25:00;1.00;99.90
12815;DHT22;6472;52.328;13.070;2022-12-07T00:27:28;0.80;99.90
12815;DHT22;6472;52.328;13.070;2022-12-07T00:29:57;0.70;99.90
12815;DHT22;6472;52.328;13.070;2022-12-07T00:32:26;0.60;99.90
12815;DHT22;6472;52.328;13.070;2022-12-07T00:34:54;0.50;99.90
12815;DHT22;6472;52.328;13.070;2022-12-07T00:37:22;0.40;99.90
12815;DHT22;6472;52.328;13.070;2022-12-07T00:39:51;0.30;99.90
12815;DHT22;6472;52.328;13.070;2022-12-07T00:42:24;0.30;99.90
12815;DHT22;6472;52.328;13.070;2022-12-07T00:44:53;0.30;99.90
12815;DHT22;6472;52.328;13.070;2022-12-07T00:47:21;0.30;99.90
12815;DHT22;6472;52.328;13.070;2022-12-07T00:49:50;0.30;99.90
12815;DHT22;6472;52.328;13.070;2022-12-07T00:52:18;0.30;99.90
12815;DHT22;6472;52.328;13.070;2022-12-07T00:54:46;0.30;99.90
12815;DHT22;6472;52.328;13.070;2022-12-07T00:57:14;0.30;99.90
12815;DHT22;6472;52.328;13.070;2022-12-07T00:59:42;0.30;99.90
12815;DHT22;6472;52.328;13.070;2022-12-07T01:02:11;0.40;99.90
12815;DHT22;6472;52.328;13.070;2022-12-07T01:04:39;0.40;99.90
12815;DHT22;6472;52.328;13.070;2022-12-07T01:07:08;0.40;99.90
12815;DHT22;6472;52.328;13.070;2022-12-07T01:09:38;0.40;99.90
12815;DHT22;6472;52.328;13.070;2022-12-07T01:12:07;0.40;99.90
12815;DHT22;6472;52.328;13.070;2022-12-07T01:14:36;0.40;99.90
12815;DHT22;6472;52.328;13.070;2022-12-07T01:17:04;0.30;99.90
12815;DHT22;6472;52.328;13.070;2022-12-07T01:19:32;0.20;99.90
12815;DHT22;6472;52.328;13.070;2022-12-07T01:22:00;0.20;99.90
12815;DHT22;6472;52.328;13.070;2022-12-07T01:24:30;0.10;99.90
12815;DHT22;6472;52.328;13.070;2022-12-07T01:26:58;0.00;99.90
12815;DHT22;6472;52.328;13.070;2022-12-07T01:29:26;0.00;99.90
12815;DHT22;6472;52.328;13.070;2022-12-07T01:31:55;-0.10;99.90
12815;DHT22;6472;52.328;13.070;2022-12-07T01:34:23;-0.20;99.90
12815;DHT22;6472;52.328;13.070;2022-12-07T01:36:51;-0.20;99.90
12815;DHT22;6472;52.328;13.070;2022-12-07T01:39:19;-0.30;99.90
12815;DHT22;6472;52.328;13.070;2022-12-07T01:41:49;-0.30;99.90
12815;DHT22;6472;52.328;13.070;2022-12-07T01:44:20;-0.30;99.90
12815;DHT22;6472;52.328;13.070;2022-12-07T01:46:50;-0.30;99.90
12815;DHT22;6472;52.328;13.070;2022-12-07T01:49:26;-0.30;99.90
12815;DHT22;6472;52.328;13.070;2022-12-07T01:52:03;-0.40;99.90
12815;DHT22;6472;52.328;13.070;2022-12-07T01:54:33;-0.30;99.90
12815;DHT22;6472;52.328;13.070;2022-12-07T01:57:04;-0.30;99.90
12815;DHT22;6472;52.328;13.070;2022-12-07T01:59:35;-0.30;99.90
12815;DHT22;6472;52.328;13.070;2022-12-07T02:02:08;-0.30;99.90
12815;DHT22;6472;52.328;13.070;2022-12-07T02:04:42;-0.20;99.90
12815;DHT22;6472;52.328;13.070;2022-12-07T02:07:10;-0.20;99.90
12815;DHT22;6472;52.328;13.070;2022-12-07T02:09:41;-0.20;99.90
12815;DHT22;6472;52.328;13.070;2022-12-07T02:12:11;-0.10;99.90
12815;DHT22;6472;52.328;13.070;2022-12-07T02:14:39;-0.10;99.90
12815;DHT22;6472;52.328;13.070;2022-12-07T02:17:13;-0.10;99.90
12815;DHT22;6472;52.328;13.070;2022-12-07T02:20:10;-0.10;99.90
12815;DHT22;6472;52.328;13.070;2022-12-07T02:22:58;-0.10;99.90
12815;DHT22;6472;52.328;13.070;2022-12-07T02:25:39;0.00;99.90
12815;DHT22;6472;52.328;13.070;2022-12-07T02:28:19;0.00;99.90
12815;DHT22;6472;52.328;13.070;2022-12-07T02:30:52;0.00;99.90
12815;DHT22;6472;52.328;13.070;2022-12-07T02:33:27;0.00;99.90
12815;DHT22;6472;52.328;13.070;2022-12-07T02:36:00;0.10;99.90
12815;DHT22;6472;52.328;13.070;2022-12-07T02:38:35;0.10;99.90
12815;DHT22;6472;52.328;13.070;2022-12-07T02:41:07;0.10;99.90
12815;DHT22;6472;52.328;13.070;2022-12-07T02:43:40;0.10;99.90
12815;DHT22;6472;52.328;13.070;2022-12-07T02:46:14;0.10;99.90
12815;DHT22;6472;52.328;13.070;2022-12-07T02:48:43;0.10;99.90
12815;DHT22;6472;52.328;13.070;2022-12-07T02:51:13;0.10;99.90
12815;DHT22;6472;52.328;13.070;2022-12-07T02:53:42;0.20;99.90
12815;DHT22;6472;52.328;13.070;2022-12-07T02:56:17;0.20;99.90
12815;DHT22;6472;52.328;13.070;2022-12-07T02:58:57;0.20;99.90
12815;DHT22;6472;52.328;13.070;2022-12-07T03:01:37;0.20;99.90
12815;DHT22;6472;52.328;13.070;2022-12-07T03:04:19;0.10;99.90
12815;DHT22;6472;52.328;13.070;2022-12-07T03:06:56;0.20;99.90
12815;DHT22;6472;52.328;13.070;2022-12-07T03:09:32;0.20;99.90
12815;DHT22;6472;52.328;13.070;2022-12-07T03:12:08;0.20;99.90
12815;DHT22;6472;52.328;13.070;2022-12-07T03:14:40;0.20;99.90
12815;DHT22;6472;52.328;13.070;2022-12-07T03:17:14;0.20;99.90
12815;DHT22;6472;52.328;13.070;2022-12-07T03:19:45;0.20;99.90
12815;DHT22;6472;52.328;13.070;2022-12-07T03:22:14;0.20;99.90
12815;DHT22;6472;52.328;13.070;2022-12-07T03:24:47;0.30;99.90
12815;DHT22;6472;52.328;13.070;2022-12-07T03:27:21;0.30;99.90
12815;DHT22;6472;52.328;13.070;2022-12-07T03:29:56;0.30;99.90
12815;DHT22;6472;52.328;13.070;2022-12-07T03:32:30;0.30;99.90
12815;DHT22;6472;52.328;13.070;2022-12-07T03:35:03;0.40;99.90
12815;DHT22;6472;52.328;13.070;2022-12-07T03:37:34;0.40;99.90
12815;DHT22;6472;52.328;13.070;2022-12-07T03:40:07;0.40;99.90
12815;DHT22;6472;52.328;13.070;2022-12-07T03:42:35;0.50;99.90
12815;DHT22;6472;52.328;13.070;2022-12-07T03:45:05;0.50;99.90
12815;DHT22;6472;52.328;13.070;2022-12-07T03:47:37;0.50;99.90
12815;DHT22;6472;52.328;13.070;2022-12-07T03:50:14;0.50;99.90
12815;DHT22;6472;52.328;13.070;2022-12-07T03:52:47;0.50;99.90
12815;DHT22;6472;52.328;13.070;2022-12-07T03:55:22;0.60;99.90
12815;DHT22;6472;52.328;13.070;2022-12-07T03:57:56;0.60;99.90
12815;DHT22;6472;52.328;13.070;2022-12-07T04:00:24;0.60;99.90
12815;DHT22;6472;52.328;13.070;2022-12-07T04:02:54;0.70;99.90
12815;DHT22;6472;52.328;13.070;2022-12-07T04:05:23;0.70;99.90
12815;DHT22;6472;52.328;13.070;2022-12-07T04:07:51;0.70;99.90
12815;DHT22;6472;52.328;13.070;2022-12-07T04:10:19;0.80;99.90
12815;DHT22;6472;52.328;13.070;2022-12-07T04:13:17;0.80;99.90
12815;DHT22;6472;52.328;13.070;2022-12-07T04:15:58;0.90;99.90
12815;DHT22;6472;52.328;13.070;2022-12-07T04:18:35;0.90;99.90
12815;DHT22;6472;52.328;13.070;2022-12-07T04:21:24;0.90;99.90
12815;DHT22;6472;52.328;13.070;2022-12-07T04:23:52;1.10;99.90
12815;DHT22;6472;52.328;13.070;2022-12-07T04:26:46;0.90;99.90
12815;DHT22;6472;52.328;13.070;2022-12-07T04:29:15;1.00;99.90
12815;DHT22;6472;52.328;13.070;2022-12-07T04:31:45;1.00;99.90
12815;DHT22;6472;52.328;13.070;2022-12-07T04:34:16;1.00;99.90
12815;DHT22;6472;52.328;13.070;2022-12-07T04:36:45;1.00;99.90
12815;DHT22;6472;52.328;13.070;2022-12-07T04:39:19;1.10;99.90
12815;DHT22;6472;52.328;13.070;2022-12-07T04:41:50;1.10;99.90
12815;DHT22;6472;52.328;13.070;2022-12-07T04:44:19;1.10;99.90
12815;DHT22;6472;52.328;13.070;2022-12-07T04:46:51;1.20;99.90
12815;DHT22;6472;52.328;13.070;2022-12-07T04:49:21;1.10;99.90
12815;DHT22;6472;52.328;13.070;2022-12-07T04:51:49;1.20;99.90
12815;DHT22;6472;52.328;13.070;2022-12-07T04:54:26;1.20;99.90
12815;DHT22;6472;52.328;13.070;2022-12-07T04:56:54;1.30;99.90
12815;DHT22;6472;52.328;13.070;2022-12-07T04:59:41;1.30;99.90
12815;DHT22;6472;52.328;13.070;2022-12-07T05:02:14;1.30;99.90
12815;DHT22;6472;52.328;13.070;2022-12-07T05:04:46;1.30;99.90
12815;DHT22;6472;52.328;13.070;2022-12-07T05:07:21;1.30;99.90
12815;DHT22;6472;52.328;13.070;2022-12-07T05:10:10;1.30;99.90
12815;DHT22;6472;52.328;13.070;2022-12-07T05:13:24;1.30;99.90
12815;DHT22;6472;52.328;13.070;2022-12-07T05:15:55;1.30;99.90
12815;DHT22;6472;52.328;13.070;2022-12-07T05:18:35;1.40;99.90
12815;DHT22;6472;52.328;13.070;2022-12-07T05:21:18;1.40;99.90
12815;DHT22;6472;52.328;13.070;2022-12-07T05:27:10;1.50;99.90
12815;DHT22;6472;52.328;13.070;2022-12-07T05:34:07;1.50;99.90
12815;DHT22;6472;52.328;13.070;2022-12-07T05:37:29;1.60;99.90
12815;DHT22;6472;52.328;13.070;2022-12-07T05:40:13;1.60;99.90
12815;DHT22;6472;52.328;13.070;2022-12-07T05:42:42;1.60;99.90
12815;DHT22;6472;52.328;13.070;2022-12-07T05:45:10;1.60;99.90
12815;DHT22;6472;52.328;13.070;2022-12-07T05:47:39;1.60;99.90
12815;DHT22;6472;52.328;13.070;2022-12-07T05:50:07;1.70;99.90
12815;DHT22;6472;52.328;13.070;2022-12-07T05:52:37;1.70;99.90
12815;DHT22;6472;52.328;13.070;2022-12-07T05:55:05;1.70;99.90
12815;DHT22;6472;52.328;13.070;2022-12-07T05:57:34;1.70;99.90
12815;DHT22;6472;52.328;13.070;2022-12-07T06:00:03;1.80;99.90
12815;DHT22;6472;52.328;13.070;2022-12-07T06:02:31;1.80;99.90
12815;DHT22;6472;52.328;13.070;2022-12-07T06:04:59;1.80;99.90
12815;DHT22;6472;52.328;13.070;2022-12-07T06:07:27;1.80;99.90
12815;DHT22;6472;52.328;13.070;2022-12-07T06:09:57;1.80;99.90
12815;DHT22;6472;52.328;13.070;2022-12-07T06:12:26;1.80;99.90
12815;DHT22;6472;52.328;13.070;2022-12-07T06:15:03;1.80;99.90
12815;DHT22;6472;52.328;13.070;2022-12-07T06:17:31;1.90;99.90
12815;DHT22;6472;52.328;13.070;2022-12-07T06:19:59;1.90;99.90
12815;DHT22;6472;52.328;13.070;2022-12-07T06:22:27;2.00;99.90
12815;DHT22;6472;52.328;13.070;2022-12-07T06:24:57;2.00;99.90
12815;DHT22;6472;52.328;13.070;2022-12-07T06:27:26;2.10;99.90
12815;DHT22;6472;52.328;13.070;2022-12-07T06:29:54;2.10;99.90
12815;DHT22;6472;52.328;13.070;2022-12-07T06:32:23;2.10;99.90
12815;DHT22;6472;52.328;13.070;2022-12-07T06:34:51;2.10;99.90
12815;DHT22;6472;52.328;13.070;2022-12-07T06:37:19;2.10;99.90
12815;DHT22;6472;52.328;13.070;2022-12-07T06:39:47;2.20;99.90
12815;DHT22;6472;52.328;13.070;2022-12-07T06:42:17;2.20;99.90
12815;DHT22;6472;52.328;13.070;2022-12-07T06:44:46;2.30;99.90
12815;DHT22;6472;52.328;13.070;2022-12-07T06:47:14;2.30;99.90
12815;DHT22;6472;52.328;13.070;2022-12-07T06:50:03;2.30;99.90
12815;DHT22;6472;52.328;13.070;2022-12-07T06:52:33;2.30;99.90
12815;DHT22;6472;52.328;13.070;2022-12-07T06:55:01;2.40;99.90
12815;DHT22;6472;52.328;13.070;2022-12-07T06:57:30;2.40;99.90
12815;DHT22;6472;52.328;13.070;2022-12-07T06:59:58;2.50;99.90
12815;DHT22;6472;52.328;13.070;2022-12-07T07:02:27;2.50;99.90
12815;DHT22;6472;52.328;13.070;2022-12-07T07:04:56;2.50;99.90
12815;DHT22;6472;52.328;13.070;2022-12-07T07:07:24;2.60;99.90
12815;DHT22;6472;52.328;13.070;2022-12-07T07:09:52;2.60;99.90
12815;DHT22;6472;52.328;13.070;2022-12-07T07:12:20;2.60;99.90
12815;DHT22;6472;52.328;13.070;2022-12-07T07:14:50;2.60;99.90
12815;DHT22;6472;52.328;13.070;2022-12-07T07:17:18;2.50;99.90
12815;DHT22;6472;52.328;13.070;2022-12-07T07:19:46;2.50;99.90
12815;DHT22;6472;52.328;13.070;2022-12-07T07:22:14;2.50;99.90
12815;DHT22;6472;52.328;13.070;2022-12-07T07:24:43;2.60;99.90
12815;DHT22;6472;52.328;13.070;2022-12-07T07:27:11;2.60;99.90
12815;DHT22;6472;52.328;13.070;2022-12-07T07:29:39;2.50;99.90
12815;DHT22;6472;52.328;13.070;2022-12-07T07:32:08;2.60;99.90
12815;DHT22;6472;52.328;13.070;2022-12-07T07:34:36;2.70;99.90
12815;DHT22;6472;52.328;13.070;2022-12-07T07:37:04;2.70;99.90
12815;DHT22;6472;52.328;13.070;2022-12-07T07:39:32;2.70;99.90
12815;DHT22;6472;52.328;13.070;2022-12-07T07:42:00;2.80;99.90
12815;DHT22;6472;52.328;13.070;2022-12-07T07:44:28;2.80;99.90
12815;DHT22;6472;52.328;13.070;2022-12-07T07:47:01;2.90;99.90
12815;DHT22;6472;52.328;13.070;2022-12-07T07:49:30;2.80;99.90
12815;DHT22;6472;52.328;13.070;2022-12-07T07:51:58;2.80;99.90
12815;DHT22;6472;52.328;13.070;2022-12-07T07:54:27;2.90;99.90
12815;DHT22;6472;52.328;13.070;2022-12-07T07:56:58;2.80;99.90
12815;DHT22;6472;52.328;13.070;2022-12-07T07:59:26;2.80;99.90
12815;DHT22;6472;52.328;13.070;2022-12-07T08:01:54;2.80;99.90
12815;DHT22;6472;52.328;13.070;2022-12-07T08:04:22;2.80;99.90
12815;DHT22;6472;52.328;13.070;2022-12-07T08:06:52;2.80;99.90
12815;DHT22;6472;52.328;13.070;2022-12-07T08:09:20;2.90;99.90
12815;DHT22;6472;52.328;13.070;2022-12-07T08:11:48;2.90;99.90
12815;DHT22;6472;52.328;13.070;2022-12-07T08:14:16;2.90;99.90
12815;DHT22;6472;52.328;13.070;2022-12-07T08:16:44;2.90;99.90
12815;DHT22;6472;52.328;13.070;2022-12-07T08:19:12;2.90;99.90
12815;DHT22;6472;52.328;13.070;2022-12-07T08:21:41;3.00;99.90
12815;DHT22;6472;52.328;13.070;2022-12-07T08:24:11;2.90;99.90
12815;DHT22;6472;52.328;13.070;2022-12-07T08:26:39;3.00;99.90
12815;DHT22;6472;52.328;13.070;2022-12-07T08:29:07;2.90;99.90
12815;DHT22;6472;52.328;13.070;2022-12-07T08:31:36;2.90;99.90
12815;DHT22;6472;52.328;13.070;2022-12-07T08:34:04;3.00;99.90
12815;DHT22;6472;52.328;13.070;2022-12-07T08:36:32;2.90;99.90
12815;DHT22;6472;52.328;13.070;2022-12-07T08:39:00;2.90;99.90
12815;DHT22;6472;52.328;13.070;2022-12-07T08:41:49;2.90;99.90
12815;DHT22;6472;52.328;13.070;2022-12-07T08:44:17;2.90;99.90
12815;DHT22;6472;52.328;13.070;2022-12-07T08:46:48;2.90;99.90
12815;DHT22;6472;52.328;13.070;2022-12-07T08:49:22;3.00;99.90
12815;DHT22;6472;52.328;13.070;2022-12-07T08:51:52;3.00;99.90
12815;DHT22;6472;52.328;13.070;2022-12-07T08:54:21;3.10;99.90
12815;DHT22;6472;52.328;13.070;2022-12-07T08:56:51;3.10;99.90
12815;DHT22;6472;52.328;13.070;2022-12-07T08:59:25;3.20;99.90
12815;DHT22;6472;52.328;13.070;2022-12-07T09:02:11;3.30;99.90
12815;DHT22;6472;52.328;13.070;2022-12-07T09:04:39;3.30;99.90
12815;DHT22;6472;52.328;13.070;2022-12-07T09:07:07;3.30;99.90
12815;DHT22;6472;52.328;13.070;2022-12-07T09:09:37;3.30;99.90
12815;DHT22;6472;52.328;13.070;2022-12-07T09:12:06;3.30;99.90
12815;DHT22;6472;52.328;13.070;2022-12-07T09:14:34;3.30;99.90
12815;DHT22;6472;52.328;13.070;2022-12-07T09:17:06;3.30;99.90
12815;DHT22;6472;52.328;13.070;2022-12-07T09:19:35;3.30;99.90
12815;DHT22;6472;52.328;13.070;2022-12-07T09:22:03;3.30;99.90
12815;DHT22;6472;52.328;13.070;2022-12-07T09:24:33;3.30;99.90
12815;DHT22;6472;52.328;13.070;2022-12-07T09:27:01;3.30;99.90
12815;DHT22;6472;52.328;13.070;2022-12-07T09:29:30;3.20;99.90
12815;DHT22;6472;52.328;13.070;2022-12-07T09:31:59;3.20;99.90
12815;DHT22;6472;52.328;13.070;2022-12-07T09:34:34;3.30;99.90
12815;DHT22;6472;52.328;13.070;2022-12-07T09:37:02;3.20;99.90
12815;DHT22;6472;52.328;13.070;2022-12-07T09:39:30;3.30;99.90
12815;DHT22;6472;52.328;13.070;2022-12-07T09:41:59;3.30;99.90
12815;DHT22;6472;52.328;13.070;2022-12-07T09:44:32;3.30;99.90
12815;DHT22;6472;52.328;13.070;2022-12-07T09:47:01;3.50;99.90
12815;DHT22;6472;52.328;13.070;2022-12-07T09:49:32;3.40;99.90
12815;DHT22;6472;52.328;13.070;2022-12-07T09:52:02;3.50;99.90
12815;DHT22;6472;52.328;13.070;2022-12-07T09:54:30;3.40;99.90
12815;DHT22;6472;52.328;13.070;2022-12-07T09:56:59;3.30;99.90
12815;DHT22;6472;52.328;13.070;2022-12-07T09:59:27;3.20;99.90
12815;DHT22;6472;52.328;13.070;2022-12-07T10:02:25;3.10;99.90
12815;DHT22;6472;52.328;13.070;2022-12-07T10:04:57;3.20;99.90
12815;DHT22;6472;52.328;13.070;2022-12-07T10:07:26;3.20;99.90
12815;DHT22;6472;52.328;13.070;2022-12-07T10:09:54;3.20;99.90
12815;DHT22;6472;52.328;13.070;2022-12-07T10:12:22;3.10;99.90
12815;DHT22;6472;52.328;13.070;2022-12-07T10:15:09;3.10;99.90
12815;DHT22;6472;52.328;13.070;2022-12-07T10:17:40;3.10;99.90
12815;DHT22;6472;52.328;13.070;2022-12-07T10:20:23;3.20;99.90
12815;DHT22;6472;52.328;13.070;2022-12-07T10:22:57;3.30;99.90
12815;DHT22;6472;52.328;13.070;2022-12-07T10:25:28;3.30;99.90
12815;DHT22;6472;52.328;13.070;2022-12-07T10:27:58;3.40;99.90
12815;DHT22;6472;52.328;13.070;2022-12-07T10:30:27;3.30;99.90
12815;DHT22;6472;52.328;13.070;2022-12-07T10:32:57;3.40;99.90
12815;DHT22;6472;52.328;13.070;2022-12-07T10:35:26;3.60;99.90
12815;DHT22;6472;52.328;13.070;2022-12-07T10:37:57;3.60;99.90
12815;DHT22;6472;52.328;13.070;2022-12-07T10:40:29;3.60;99.90
12815;DHT22;6472;52.328;13.070;2022-12-07T10:43:02;3.70;99.90
12815;DHT22;6472;52.328;13.070;2022-12-07T10:45:32;3.80;99.90
12815;DHT22;6472;52.328;13.070;2022-12-07T10:48:13;3.80;99.90
12815;DHT22;6472;52.328;13.070;2022-12-07T10:50:59;3.90;99.90
12815;DHT22;6472;52.328;13.070;2022-12-07T10:53:44;4.00;99.90
12815;DHT22;6472;52.328;13.070;2022-12-07T10:56:43;4.00;99.90
12815;DHT22;6472;52.328;13.070;2022-12-07T10:59:41;3.80;99.90
12815;DHT22;6472;52.328;13.070;2022-12-07T11:02:40;3.80;99.90
12815;DHT22;6472;52.328;13.070;2022-12-07T11:05:19;3.90;99.90
12815;DHT22;6472;52.328;13.070;2022-12-07T11:07:59;3.90;99.90
12815;DHT22;6472;52.328;13.070;2022-12-07T11:10:35;3.90;99.90
12815;DHT22;6472;52.328;13.070;2022-12-07T11:13:27;3.80;99.90
12815;DHT22;6472;52.328;13.070;2022-12-07T11:16:21;3.80;99.90
12815;DHT22;6472;52.328;13.070;2022-12-07T11:21:48;3.80;99.90
12815;DHT22;6472;52.328;13.070;2022-12-07T11:24:19;3.80;99.90
12815;DHT22;6472;52.328;13.070;2022-12-07T11:27:07;3.80;99.90
12815;DHT22;6472;52.328;13.070;2022-12-07T11:29:55;3.90;99.90
12815;DHT22;6472;52.328;13.070;2022-12-07T11:32:44;3.80;99.90
12815;DHT22;6472;52.328;13.070;2022-12-07T11:35:24;3.90;99.90
12815;DHT22;6472;52.328;13.070;2022-12-07T11:37:59;3.90;99.90
12815;DHT22;6472;52.328;13.070;2022-12-07T11:40:31;3.90;99.90
12815;DHT22;6472;52.328;13.070;2022-12-07T11:43:06;4.00;99.90
12815;DHT22;6472;52.328;13.070;2022-12-07T11:45:42;4.00;99.90
12815;DHT22;6472;52.328;13.070;2022-12-07T11:48:15;4.10;99.90
12815;DHT22;6472;52.328;13.070;2022-12-07T11:50:48;4.10;99.90
12815;DHT22;6472;52.328;13.070;2022-12-07T11:53:22;4.20;99.90
12815;DHT22;6472;52.328;13.070;2022-12-07T11:55:56;4.30;99.90
12815;DHT22;6472;52.328;13.070;2022-12-07T11:58:44;4.30;99.90
12815;DHT22;6472;52.328;13.070;2022-12-07T12:01:29;4.40;99.90
12815;DHT22;6472;52.328;13.070;2022-12-07T12:04:05;4.30;99.90
12815;DHT22;6472;52.328;13.070;2022-12-07T12:06:34;4.40;99.90
12815;DHT22;6472;52.328;13.070;2022-12-07T12:09:06;4.40;99.90
12815;DHT22;6472;52.328;13.070;2022-12-07T12:12:15;4.50;99.90
12815;DHT22;6472;52.328;13.070;2022-12-07T12:15:20;4.50;99.90
12815;DHT22;6472;52.328;13.070;2022-12-07T12:20:55;4.50;99.90
12815;DHT22;6472;52.328;13.070;2022-12-07T12:23:32;4.50;99.90
12815;DHT22;6472;52.328;13.070;2022-12-07T12:26:06;4.50;99.90
12815;DHT22;6472;52.328;13.070;2022-12-07T12:28:39;4.50;99.90
12815;DHT22;6472;52.328;13.070;2022-12-07T12:31:28;4.40;99.90
12815;DHT22;6472;52.328;13.070;2022-12-07T12:34:00;4.60;99.90
12815;DHT22;6472;52.328;13.070;2022-12-07T12:36:44;4.50;99.90
12815;DHT22;6472;52.328;13.070;2022-12-07T12:39:14;4.40;99.90
12815;DHT22;6472;52.328;13.070;2022-12-07T12:41:58;4.40;99.90
12815;DHT22;6472;52.328;13.070;2022-12-07T12:45:03;4.40;99.90
12815;DHT22;6472;52.328;13.070;2022-12-07T12:48:02;4.50;99.90
12815;DHT22;6472;52.328;13.070;2022-12-07T12:50:33;4.40;99.90
12815;DHT22;6472;52.328;13.070;2022-12-07T12:53:14;4.40;99.90
12815;DHT22;6472;52.328;13.070;2022-12-07T12:56:04;4.50;99.90
12815;DHT22;6472;52.328;13.070;2022-12-07T12:58:44;4.60;99.90
12815;DHT22;6472;52.328;13.070;2022-12-07T13:01:35;4.50;99.90
12815;DHT22;6472;52.328;13.070;2022-12-07T13:07:13;4.30;99.90
12815;DHT22;6472;52.328;13.070;2022-12-07T13:10:02;4.30;99.90
12815;DHT22;6472;52.328;13.070;2022-12-07T13:12:31;4.30;99.90
12815;DHT22;6472;52.328;13.070;2022-12-07T13:15:01;4.30;99.90
12815;DHT22;6472;52.328;13.070;2022-12-07T13:18:01;4.30;99.90
12815;DHT22;6472;52.328;13.070;2022-12-07T13:20:47;4.40;99.90
12815;DHT22;6472;52.328;13.070;2022-12-07T13:23:35;4.30;99.90
12815;DHT22;6472;52.328;13.070;2022-12-07T13:26:24;4.30;99.90
12815;DHT22;6472;52.328;13.070;2022-12-07T13:29:09;4.20;99.90
12815;DHT22;6472;52.328;13.070;2022-12-07T13:31:41;4.10;99.90
12815;DHT22;6472;52.328;13.070;2022-12-07T13:34:31;4.10;99.90
12815;DHT22;6472;52.328;13.070;2022-12-07T13:37:00;4.10;99.90
12815;DHT22;6472;52.328;13.070;2022-12-07T13:39:29;4.00;99.90
12815;DHT22;6472;52.328;13.070;2022-12-07T13:41:58;4.10;99.90
12815;DHT22;6472;52.328;13.070;2022-12-07T13:44:33;4.10;99.90
12815;DHT22;6472;52.328;13.070;2022-12-07T13:47:13;4.10;99.90
12815;DHT22;6472;52.328;13.070;2022-12-07T13:49:48;4.10;99.90
12815;DHT22;6472;52.328;13.070;2022-12-07T13:52:21;4.10;99.90
12815;DHT22;6472;52.328;13.070;2022-12-07T13:54:56;4.00;99.90
12815;DHT22;6472;52.328;13.070;2022-12-07T13:57:25;4.10;99.90
12815;DHT22;6472;52.328;13.070;2022-12-07T13:59:54;4.00;99.90
12815;DHT22;6472;52.328;13.070;2022-12-07T14:02:29;3.90;99.90
12815;DHT22;6472;52.328;13.070;2022-12-07T14:05:09;4.00;99.90
12815;DHT22;6472;52.328;13.070;2022-12-07T14:07:49;4.00;99.90
12815;DHT22;6472;52.328;13.070;2022-12-07T14:10:25;4.00;99.90
12815;DHT22;6472;52.328;13.070;2022-12-07T14:12:55;4.00;99.90
12815;DHT22;6472;52.328;13.070;2022-12-07T14:15:25;4.10;99.90
12815;DHT22;6472;52.328;13.070;2022-12-07T14:17:56;4.00;99.90
12815;DHT22;6472;52.328;13.070;2022-12-07T14:20:32;4.00;99.90
12815;DHT22;6472;52.328;13.070;2022-12-07T14:23:01;3.90;99.90
12815;DHT22;6472;52.328;13.070;2022-12-07T14:25:45;3.90;99.90
12815;DHT22;6472;52.328;13.070;2022-12-07T14:28:28;3.80;99.90
12815;DHT22;6472;52.328;13.070;2022-12-07T14:30:59;3.70;99.90
12815;DHT22;6472;52.328;13.070;2022-12-07T14:33:29;3.60;99.90
12815;DHT22;6472;52.328;13.070;2022-12-07T14:35:57;3.50;99.90
12815;DHT22;6472;52.328;13.070;2022-12-07T14:38:25;3.50;99.90
12815;DHT22;6472;52.328;13.070;2022-12-07T14:40:55;3.40;99.90
12815;DHT22;6472;52.328;13.070;2022-12-07T14:43:44;3.50;99.90
12815;DHT22;6472;52.328;13.070;2022-12-07T14:46:32;3.30;99.90
12815;DHT22;6472;52.328;13.070;2022-12-07T14:49:02;3.30;99.90
12815;DHT22;6472;52.328;13.070;2022-12-07T14:51:50;3.20;99.90
12815;DHT22;6472;52.328;13.070;2022-12-07T14:54:38;3.20;99.90
12815;DHT22;6472;52.328;13.070;2022-12-07T14:57:09;3.10;99.90
12815;DHT22;6472;52.328;13.070;2022-12-07T14:59:37;3.10;99.90
12815;DHT22;6472;52.328;13.070;2022-12-07T15:02:12;3.00;99.90
12815;DHT22;6472;52.328;13.070;2022-12-07T15:04:41;3.10;99.90
12815;DHT22;6472;52.328;13.070;2022-12-07T15:07:15;3.10;99.90
12815;DHT22;6472;52.328;13.070;2022-12-07T15:09:44;3.00;99.90
12815;DHT22;6472;52.328;13.070;2022-12-07T15:12:12;3.00;99.90
12815;DHT22;6472;52.328;13.070;2022-12-07T15:14:40;2.90;99.90
12815;DHT22;6472;52.328;13.070;2022-12-07T15:17:10;2.90;99.90
12815;DHT22;6472;52.328;13.070;2022-12-07T15:19:55;2.80;99.90
12815;DHT22;6472;52.328;13.070;2022-12-07T15:22:23;2.70;99.90
12815;DHT22;6472;52.328;13.070;2022-12-07T15:24:51;2.70;99.90
12815;DHT22;6472;52.328;13.070;2022-12-07T15:27:19;2.70;99.90
12815;DHT22;6472;52.328;13.070;2022-12-07T15:29:47;2.60;99.90
12815;DHT22;6472;52.328;13.070;2022-12-07T15:32:15;2.50;99.90
12815;DHT22;6472;52.328;13.070;2022-12-07T15:34:43;2.50;99.90
12815;DHT22;6472;52.328;13.070;2022-12-07T15:37:12;2.50;99.90
12815;DHT22;6472;52.328;13.070;2022-12-07T15:39:41;2.40;99.90
12815;DHT22;6472;52.328;13.070;2022-12-07T15:42:09;2.40;99.90
12815;DHT22;6472;52.328;13.070;2022-12-07T15:44:37;2.30;99.90
12815;DHT22;6472;52.328;13.070;2022-12-07T15:47:22;2.20;99.90
12815;DHT22;6472;52.328;13.070;2022-12-07T15:49:50;2.10;99.90
12815;DHT22;6472;52.328;13.070;2022-12-07T15:52:20;2.10;99.90
12815;DHT22;6472;52.328;13.070;2022-12-07T15:54:51;2.10;99.90
12815;DHT22;6472;52.328;13.070;2022-12-07T15:57:19;2.20;99.90
12815;DHT22;6472;52.328;13.070;2022-12-07T15:59:51;2.30;99.90
12815;DHT22;6472;52.328;13.070;2022-12-07T16:02:20;2.30;99.90
12815;DHT22;6472;52.328;13.070;2022-12-07T16:04:49;2.20;99.90
12815;DHT22;6472;52.328;13.070;2022-12-07T16:07:17;2.10;99.90
12815;DHT22;6472;52.328;13.070;2022-12-07T16:09:47;2.10;99.90
12815;DHT22;6472;52.328;13.070;2022-12-07T16:12:16;2.20;99.90
12815;DHT22;6472;52.328;13.070;2022-12-07T16:14:45;2.10;99.90
12815;DHT22;6472;52.328;13.070;2022-12-07T16:17:13;2.10;99.90
12815;DHT22;6472;52.328;13.070;2022-12-07T16:19:41;1.90;99.90
12815;DHT22;6472;52.328;13.070;2022-12-07T16:22:09;2.00;99.90
12815;DHT22;6472;52.328;13.070;2022-12-07T16:24:38;2.00;99.90
12815;DHT22;6472;52.328;13.070;2022-12-07T16:27:08;2.20;99.90
12815;DHT22;6472;52.328;13.070;2022-12-07T16:29:36;2.00;99.90
12815;DHT22;6472;52.328;13.070;2022-12-07T16:32:05;1.90;99.90
12815;DHT22;6472;52.328;13.070;2022-12-07T16:34:33;2.00;99.90
12815;DHT22;6472;52.328;13.070;2022-12-07T16:37:01;1.90;99.90
12815;DHT22;6472;52.328;13.070;2022-12-07T16:39:31;1.90;99.90